createdAt,value
2018-12-10T00:01:42.615Z,4.93
2018-12-10T00:04:10.163Z,4.80
2018-12-10T00:06:37.679Z,4.77
2018-12-10T00:09:05.682Z,4.86
2018-12-10T00:11:33.308Z,4.78
2018-12-10T00:14:00.786Z,4.54
2018-12-10T00:16:28.320Z,4.68
2018-12-10T00:18:55.891Z,4.67
2018-12-10T00:21:23.465Z,4.74
2018-12-10T00:23:50.906Z,4.72
2018-12-10T00:26:18.359Z,4.81
2018-12-10T00:28:45.826Z,4.82
2018-12-10T00:31:13.277Z,4.89
2018-12-10T00:33:40.693Z,5.04
2018-12-10T00:36:08.134Z,4.98
2018-12-10T00:38:35.654Z,4.87
2018-12-10T00:41:03.106Z,4.80
2018-12-10T00:43:30.562Z,4.94
2018-12-10T00:45:58.037Z,5.06
2018-12-10T00:48:25.491Z,5.20
2018-12-10T00:50:52.916Z,5.24
2018-12-10T00:53:20.384Z,5.31
2018-12-10T00:55:47.793Z,5.31
2018-12-10T00:58:15.308Z,4.97
2018-12-10T01:00:42.756Z,4.76
2018-12-10T01:03:10.252Z,4.73
2018-12-10T01:05:37.777Z,4.63
2018-12-10T01:08:05.264Z,4.72
2018-12-10T01:10:32.782Z,4.80
2018-12-10T01:13:00.196Z,4.99
2018-12-10T01:15:27.696Z,5.03
2018-12-10T01:17:55.146Z,5.16
2018-12-10T01:20:22.626Z,5.08
2018-12-10T01:22:50.040Z,4.96
2018-12-10T01:25:17.472Z,4.92
2018-12-10T01:27:44.992Z,4.87
2018-12-10T01:30:12.448Z,4.91
2018-12-10T01:32:39.918Z,4.85
2018-12-10T01:35:07.380Z,5.01
2018-12-10T01:37:34.929Z,5.05
2018-12-10T01:40:02.483Z,5.01
2018-12-10T01:42:29.891Z,4.91
2018-12-10T01:44:57.354Z,5.06
2018-12-10T01:47:24.848Z,5.01
2018-12-10T01:49:52.323Z,5.14
2018-12-10T01:52:19.773Z,5.09
2018-12-10T01:54:47.205Z,5.08
2018-12-10T01:57:14.697Z,5.13
2018-12-10T01:59:42.134Z,5.33
2018-12-10T02:02:09.696Z,5.25
2018-12-10T02:04:37.138Z,5.27
2018-12-10T02:07:04.569Z,5.28
2018-12-10T02:09:31.988Z,5.02
2018-12-10T02:11:59.450Z,4.95
2018-12-10T02:14:26.909Z,4.95
2018-12-10T02:16:54.357Z,4.90
2018-12-10T02:19:21.901Z,4.76
2018-12-10T02:21:49.351Z,4.76
2018-12-10T02:24:16.799Z,4.76
2018-12-10T02:26:44.216Z,4.87
2018-12-10T02:29:13.436Z,4.58
2018-12-10T02:31:41.124Z,4.41
2018-12-10T02:34:08.592Z,4.46
2018-12-10T02:36:36.049Z,4.42
2018-12-10T02:39:04.945Z,4.39
2018-12-10T02:41:32.495Z,4.37
2018-12-10T02:43:59.913Z,4.32
2018-12-10T02:46:27.389Z,4.29
2018-12-10T02:48:54.858Z,4.27
2018-12-10T02:51:22.303Z,4.34
2018-12-10T02:53:49.790Z,4.28
2018-12-10T02:56:17.244Z,4.22
2018-12-10T02:58:44.665Z,4.16
2018-12-10T03:01:12.089Z,4.22
2018-12-10T03:03:39.537Z,4.25
2018-12-10T03:06:07.058Z,4.21
2018-12-10T03:08:34.598Z,4.27
2018-12-10T03:11:02.085Z,4.42
2018-12-10T03:13:29.635Z,4.41
2018-12-10T03:15:57.192Z,4.40
2018-12-10T03:18:24.616Z,4.42
2018-12-10T03:20:52.982Z,4.35
2018-12-10T03:23:20.527Z,4.44
2018-12-10T03:25:47.985Z,4.45
2018-12-10T03:28:15.446Z,4.39
2018-12-10T03:30:43.004Z,4.43
2018-12-10T03:33:10.569Z,4.49
2018-12-10T03:35:38.033Z,4.58
2018-12-10T03:38:05.427Z,4.41
2018-12-10T03:40:32.907Z,4.43
2018-12-10T03:43:00.364Z,4.20
2018-12-10T03:45:27.747Z,4.23
2018-12-10T03:47:55.312Z,4.24
2018-12-10T03:50:22.849Z,4.10
2018-12-10T03:52:50.318Z,4.19
2018-12-10T03:55:17.774Z,4.07
2018-12-10T03:57:45.173Z,4.02
2018-12-10T04:00:12.645Z,3.94
2018-12-10T04:02:40.039Z,3.82
2018-12-10T04:05:07.524Z,3.73
2018-12-10T04:07:34.988Z,3.75
2018-12-10T04:10:02.670Z,3.65
2018-12-10T04:12:30.187Z,3.65
2018-12-10T04:14:57.582Z,3.77
2018-12-10T04:17:25.093Z,3.75
2018-12-10T04:19:52.553Z,3.85
2018-12-10T04:22:19.933Z,3.79
2018-12-10T04:24:47.315Z,3.79
2018-12-10T04:27:14.699Z,3.77
2018-12-10T04:29:42.130Z,3.79
2018-12-10T04:32:09.528Z,3.74
2018-12-10T04:34:36.980Z,3.88
2018-12-10T04:37:04.547Z,3.99
2018-12-10T04:39:31.997Z,3.85
2018-12-10T04:41:59.458Z,3.84
2018-12-10T04:44:26.870Z,3.88
2018-12-10T04:46:54.263Z,3.95
2018-12-10T04:49:21.649Z,3.96
2018-12-10T04:51:49.034Z,3.80
2018-12-10T04:54:16.517Z,3.75
2018-12-10T04:56:43.986Z,3.86
2018-12-10T04:59:11.414Z,3.81
2018-12-10T05:01:38.797Z,3.78
2018-12-10T05:04:06.264Z,3.71
2018-12-10T05:06:33.647Z,3.80
2018-12-10T05:09:01.069Z,3.96
2018-12-10T05:11:28.535Z,3.85
2018-12-10T05:13:55.981Z,3.83
2018-12-10T05:16:23.439Z,3.90
2018-12-10T05:18:50.818Z,3.99
2018-12-10T05:21:18.207Z,3.96
2018-12-10T05:23:45.591Z,4.01
2018-12-10T05:26:12.977Z,4.11
2018-12-10T05:28:40.358Z,4.03
2018-12-10T05:31:07.783Z,3.98
2018-12-10T05:33:35.158Z,3.92
2018-12-10T05:36:02.549Z,3.97
2018-12-10T05:38:29.926Z,3.98
2018-12-10T05:40:57.399Z,3.92
2018-12-10T05:43:24.865Z,3.97
2018-12-10T05:45:52.322Z,4.03
2018-12-10T05:48:19.711Z,4.11
2018-12-10T05:50:47.233Z,4.19
2018-12-10T05:53:14.775Z,4.03
2018-12-10T05:55:42.213Z,3.96
2018-12-10T05:58:09.698Z,4.00
2018-12-10T06:00:37.153Z,3.98
2018-12-10T06:03:04.610Z,3.92
2018-12-10T06:05:32.004Z,3.89
2018-12-10T06:07:59.395Z,3.88
2018-12-10T06:10:26.878Z,3.88
2018-12-10T06:12:54.306Z,3.99
2018-12-10T06:15:21.714Z,3.96
2018-12-10T06:17:49.159Z,3.89
2018-12-10T06:20:16.634Z,3.80
2018-12-10T06:22:44.282Z,3.89
2018-12-10T06:25:11.668Z,3.77
2018-12-10T06:27:39.119Z,3.83
2018-12-10T06:30:06.842Z,3.74
2018-12-10T06:32:34.270Z,3.62
2018-12-10T06:35:01.742Z,3.55
2018-12-10T06:37:37.416Z,3.47
2018-12-10T06:39:58.790Z,3.30
2018-12-10T06:42:26.270Z,3.22
2018-12-10T06:44:53.792Z,3.17
2018-12-10T06:47:21.328Z,3.29
2018-12-10T06:49:48.758Z,3.28
2018-12-10T06:52:16.198Z,3.33
2018-12-10T06:54:43.670Z,3.32
2018-12-10T06:57:11.062Z,3.29
2018-12-10T06:59:38.454Z,3.32
2018-12-10T07:02:05.913Z,3.35
2018-12-10T07:04:33.494Z,3.40
2018-12-10T07:07:00.961Z,3.41
2018-12-10T07:09:28.407Z,3.29
2018-12-10T07:11:55.809Z,3.26
2018-12-10T07:14:23.213Z,3.15
2018-12-10T07:16:50.680Z,3.08
2018-12-10T07:19:18.137Z,3.14
2018-12-10T07:21:45.546Z,3.08
2018-12-10T07:24:12.959Z,3.11
2018-12-10T07:26:40.354Z,3.16
2018-12-10T07:29:07.734Z,3.11
2018-12-10T07:31:35.218Z,3.15
2018-12-10T07:34:02.692Z,3.16
2018-12-10T07:36:30.126Z,3.11
2018-12-10T07:38:57.572Z,3.30
2018-12-10T07:41:25.039Z,3.27
2018-12-10T07:43:52.497Z,3.29
2018-12-10T07:46:19.882Z,3.27
2018-12-10T07:48:47.270Z,3.36
2018-12-10T07:51:14.760Z,3.24
2018-12-10T07:53:42.222Z,3.27
2018-12-10T07:56:09.674Z,3.31
2018-12-10T07:58:37.067Z,3.32
2018-12-10T08:01:04.490Z,3.24
2018-12-10T08:03:31.882Z,3.33
2018-12-10T08:05:59.274Z,3.44
2018-12-10T08:08:26.735Z,3.82
2018-12-10T08:10:54.122Z,4.34
2018-12-10T08:13:21.570Z,4.77
2018-12-10T08:15:48.954Z,4.87
2018-12-10T08:18:16.378Z,4.97
2018-12-10T08:20:43.761Z,4.70
2018-12-10T08:23:11.186Z,4.62
2018-12-10T08:25:38.563Z,4.21
2018-12-10T08:28:05.971Z,4.22
2018-12-10T08:30:33.619Z,4.08
2018-12-10T08:33:01.118Z,4.02
2018-12-10T08:35:28.582Z,3.93
2018-12-10T08:37:56.033Z,4.02
2018-12-10T08:40:23.555Z,4.14
2018-12-10T08:42:51.097Z,4.62
2018-12-10T08:45:18.611Z,5.07
2018-12-10T08:47:46.062Z,5.25
2018-12-10T08:50:13.522Z,5.33
2018-12-10T08:52:40.980Z,5.06
2018-12-10T08:55:08.446Z,5.16
2018-12-10T08:57:36.098Z,4.92
2018-12-10T09:00:05.001Z,4.64
2018-12-10T09:02:32.382Z,4.63
2018-12-10T09:04:59.774Z,4.47
2018-12-10T09:07:27.259Z,4.61
2018-12-10T09:09:54.714Z,5.17
2018-12-10T09:12:22.105Z,5.91
2018-12-10T09:14:49.522Z,6.05
2018-12-10T09:17:16.977Z,5.70
2018-12-10T09:19:44.370Z,6.09
2018-12-10T09:22:11.742Z,6.53
2018-12-10T09:24:39.155Z,6.94
2018-12-10T09:27:06.713Z,7.33
2018-12-10T09:29:34.202Z,7.25
2018-12-10T09:32:01.734Z,6.83
2018-12-10T09:34:29.174Z,6.19
2018-12-10T09:36:56.563Z,5.78
2018-12-10T09:39:23.991Z,5.36
2018-12-10T09:41:51.375Z,5.37
2018-12-10T09:44:18.802Z,5.86
2018-12-10T09:46:46.281Z,6.53
2018-12-10T09:49:13.727Z,6.85
2018-12-10T09:51:42.932Z,6.18
2018-12-10T09:54:10.551Z,6.43
2018-12-10T09:56:37.930Z,7.01
2018-12-10T09:59:05.318Z,7.25
2018-12-10T10:01:32.743Z,7.05
2018-12-10T10:04:00.137Z,6.98
2018-12-10T10:06:27.527Z,7.07
2018-12-10T10:08:54.923Z,6.44
2018-12-10T10:11:22.410Z,6.04
2018-12-10T10:13:49.832Z,6.54
2018-12-10T10:16:17.279Z,7.29
2018-12-10T10:18:44.737Z,7.48
2018-12-10T10:21:12.131Z,7.30
2018-12-10T10:23:39.555Z,7.72
2018-12-10T10:26:06.938Z,7.42
2018-12-10T10:28:34.358Z,7.59
2018-12-10T10:31:01.809Z,7.47
2018-12-10T10:33:32.416Z,7.08
2018-12-10T10:35:58.670Z,7.05
2018-12-10T10:38:26.135Z,6.81
2018-12-10T10:40:53.586Z,7.00
2018-12-10T10:43:20.980Z,6.83
2018-12-10T10:45:48.399Z,6.59
2018-12-10T10:48:15.858Z,6.51
2018-12-10T10:50:43.313Z,6.37
2018-12-10T10:53:10.769Z,6.15
2018-12-10T10:55:38.227Z,6.05
2018-12-10T10:58:05.615Z,6.00
2018-12-10T11:00:38.579Z,6.06
2018-12-10T11:03:07.864Z,6.00
2018-12-10T11:05:35.291Z,6.01
2018-12-10T11:08:02.731Z,6.00
2018-12-10T11:10:30.130Z,6.21
2018-12-10T11:12:57.599Z,6.13
2018-12-10T11:15:25.050Z,6.28
2018-12-10T11:17:52.516Z,6.10
2018-12-10T11:20:19.962Z,6.09
2018-12-10T11:22:47.425Z,6.25
2018-12-10T11:25:14.874Z,6.46
2018-12-10T11:27:42.334Z,6.33
2018-12-10T11:30:09.795Z,6.33
2018-12-10T11:32:37.246Z,6.37
2018-12-10T11:35:04.701Z,6.26
2018-12-10T11:37:32.836Z,6.16
2018-12-10T11:40:00.319Z,6.12
2018-12-10T11:42:27.792Z,6.02
2018-12-10T11:44:55.346Z,5.98
2018-12-10T11:47:22.806Z,5.97
2018-12-10T11:49:50.270Z,5.81
2018-12-10T11:52:17.668Z,5.77
2018-12-10T11:54:45.046Z,5.57
2018-12-10T11:57:12.498Z,5.51
2018-12-10T11:59:39.890Z,5.45
2018-12-10T12:02:07.291Z,5.45
2018-12-10T12:04:34.671Z,5.53
2018-12-10T12:07:02.072Z,5.56
2018-12-10T12:09:29.458Z,5.49
2018-12-10T12:11:56.850Z,5.35
2018-12-10T12:14:24.234Z,5.40
2018-12-10T12:16:51.622Z,5.63
2018-12-10T12:19:19.003Z,5.74
2018-12-10T12:21:46.394Z,5.87
2018-12-10T12:24:13.778Z,5.93
2018-12-10T12:26:41.203Z,5.90
2018-12-10T12:29:08.658Z,5.94
2018-12-10T12:31:36.037Z,5.98
2018-12-10T12:34:03.477Z,6.06
2018-12-10T12:36:30.867Z,6.12
2018-12-10T12:38:58.249Z,6.17
2018-12-10T12:41:25.634Z,5.91
2018-12-10T12:43:53.086Z,5.99
2018-12-10T12:46:20.656Z,5.74
2018-12-10T12:48:48.113Z,5.66
2018-12-10T12:51:15.498Z,5.62
2018-12-10T12:53:42.924Z,5.72
2018-12-10T12:56:10.374Z,5.92
2018-12-10T12:58:37.835Z,5.91
2018-12-10T13:01:05.216Z,5.98
2018-12-10T13:03:32.646Z,6.05
2018-12-10T13:06:06.752Z,5.94
2018-12-10T13:08:31.152Z,5.96
2018-12-10T13:10:58.810Z,6.30
2018-12-10T13:13:26.258Z,6.34
2018-12-10T13:15:53.723Z,6.34
2018-12-10T13:18:21.173Z,6.25
2018-12-10T13:20:48.562Z,6.11
2018-12-10T13:23:15.950Z,6.16
2018-12-10T13:25:43.342Z,6.16
2018-12-10T13:28:10.802Z,6.02
2018-12-10T13:30:38.305Z,5.84
2018-12-10T13:33:05.927Z,5.76
2018-12-10T13:38:04.463Z,5.64
2018-12-10T13:40:31.255Z,5.62
2018-12-10T13:42:58.654Z,5.63
2018-12-10T13:45:30.996Z,5.51
2018-12-10T13:47:55.546Z,5.39
2018-12-10T13:50:23.009Z,5.15
2018-12-10T13:52:50.491Z,4.97
2018-12-10T13:55:17.969Z,4.98
2018-12-10T13:57:45.425Z,4.94
2018-12-10T14:00:12.818Z,5.09
2018-12-10T14:02:40.217Z,5.13
2018-12-10T14:05:09.506Z,5.24
2018-12-10T14:07:36.970Z,5.26
2018-12-10T14:10:05.154Z,5.06
2018-12-10T14:12:32.538Z,4.99
2018-12-10T14:14:59.963Z,4.81
2018-12-10T14:17:27.427Z,4.67
2018-12-10T14:19:54.869Z,4.57
2018-12-10T14:22:22.259Z,4.55
2018-12-10T14:24:49.643Z,4.48
2018-12-10T14:27:17.041Z,4.55
2018-12-10T14:29:44.494Z,4.58
2018-12-10T14:32:11.886Z,4.52
2018-12-10T14:34:39.266Z,4.52
2018-12-10T14:37:06.649Z,4.58
2018-12-10T14:39:34.075Z,4.60
2018-12-10T14:42:01.469Z,4.58
2018-12-10T14:44:28.947Z,4.51
2018-12-10T14:46:56.386Z,4.47
2018-12-10T14:49:23.786Z,4.34
2018-12-10T14:51:51.171Z,4.30
2018-12-10T14:54:18.567Z,4.40
2018-12-10T14:56:46.014Z,4.22
2018-12-10T14:59:13.487Z,4.02
2018-12-10T15:01:40.873Z,3.94
2018-12-10T15:04:08.272Z,3.81
2018-12-10T15:06:35.650Z,3.75
2018-12-10T15:09:04.371Z,3.79
2018-12-10T15:11:31.774Z,3.88
2018-12-10T15:13:59.209Z,3.79
2018-12-10T15:16:26.705Z,3.87
2018-12-10T15:18:54.251Z,3.98
2018-12-10T15:21:21.706Z,3.92
2018-12-10T15:23:49.165Z,3.94
2018-12-10T15:26:16.618Z,4.07
2018-12-10T15:28:43.993Z,3.94
2018-12-10T15:31:11.400Z,3.99
2018-12-10T15:33:38.825Z,4.06
2018-12-10T15:36:06.247Z,4.01
2018-12-10T15:38:33.693Z,3.90
2018-12-10T15:41:01.083Z,3.89
2018-12-10T15:43:28.463Z,3.97
2018-12-10T15:45:55.866Z,3.96
2018-12-10T15:48:23.254Z,3.98
2018-12-10T15:50:50.680Z,4.02
2018-12-10T15:53:18.058Z,4.01
2018-12-10T15:55:45.462Z,4.00
2018-12-10T15:58:12.842Z,4.05
2018-12-10T16:00:40.231Z,4.07
2018-12-10T16:03:07.618Z,4.27
2018-12-10T16:05:35.010Z,4.32
2018-12-10T16:08:02.471Z,4.30
2018-12-10T16:10:29.863Z,4.36
2018-12-10T16:12:57.274Z,4.28
2018-12-10T16:15:24.678Z,4.18
2018-12-10T16:17:52.066Z,4.10
2018-12-10T16:20:19.461Z,4.23
2018-12-10T16:22:47.105Z,4.20
2018-12-10T16:25:14.518Z,4.16
2018-12-10T16:27:42.105Z,4.04
2018-12-10T16:30:09.587Z,4.00
2018-12-10T16:32:36.974Z,3.94
2018-12-10T16:35:04.497Z,3.98
2018-12-10T16:37:31.950Z,4.07
2018-12-10T16:39:59.331Z,4.08
2018-12-10T16:42:26.758Z,4.21
2018-12-10T16:44:54.220Z,4.17
2018-12-10T16:47:21.632Z,4.30
2018-12-10T16:49:49.135Z,4.45
2018-12-10T16:52:16.592Z,4.40
2018-12-10T16:54:44.047Z,4.47
2018-12-10T16:57:11.434Z,4.31
2018-12-10T16:59:38.853Z,4.21
2018-12-10T17:02:06.517Z,4.03
2018-12-10T17:04:33.906Z,4.18
2018-12-10T17:07:01.330Z,4.12
2018-12-10T17:09:29.115Z,4.14
2018-12-10T17:11:56.810Z,4.17
2018-12-10T17:14:24.201Z,4.15
2018-12-10T17:16:51.676Z,4.16
2018-12-10T17:19:19.138Z,4.28
2018-12-10T17:21:46.684Z,4.53
2018-12-10T17:24:14.134Z,4.54
2018-12-10T17:26:41.598Z,4.55
2018-12-10T17:29:09.059Z,4.62
2018-12-10T17:31:36.510Z,4.44
2018-12-10T17:34:03.937Z,4.45
2018-12-10T17:36:31.426Z,4.41
2018-12-10T17:38:58.895Z,4.29
2018-12-10T17:41:26.332Z,4.37
2018-12-10T17:43:53.798Z,4.36
2018-12-10T17:46:21.181Z,4.32
2018-12-10T17:48:48.611Z,4.34
2018-12-10T17:51:16.058Z,4.24
2018-12-10T17:53:43.884Z,4.19
2018-12-10T17:56:11.379Z,4.23
2018-12-10T17:58:38.778Z,4.28
2018-12-10T18:01:06.179Z,4.29
2018-12-10T18:03:33.658Z,4.28
2018-12-10T18:06:01.051Z,4.16
2018-12-10T18:08:28.467Z,4.12
2018-12-10T18:10:55.858Z,4.07
2018-12-10T18:13:23.276Z,4.04
2018-12-10T18:15:50.746Z,4.06
2018-12-10T18:18:18.138Z,4.05
2018-12-10T18:20:45.519Z,4.06
2018-12-10T18:23:12.919Z,4.01
2018-12-10T18:25:40.306Z,4.08
2018-12-10T18:28:07.702Z,4.08
2018-12-10T18:30:35.298Z,4.04
2018-12-10T18:33:02.702Z,3.98
2018-12-10T18:35:30.152Z,4.07
2018-12-10T18:37:58.121Z,4.04
2018-12-10T18:40:25.713Z,4.22
2018-12-10T18:42:53.216Z,4.37
2018-12-10T18:45:20.626Z,4.36
2018-12-10T18:47:48.078Z,4.48
2018-12-10T18:50:15.466Z,4.70
2018-12-10T18:52:42.845Z,4.85
2018-12-10T18:55:10.250Z,4.79
2018-12-10T18:57:37.707Z,4.76
2018-12-10T19:00:09.010Z,4.65
2018-12-10T19:02:36.815Z,4.56
2018-12-10T19:05:05.706Z,4.56
2018-12-10T19:07:33.498Z,4.30
2018-12-10T19:10:00.901Z,4.36
2018-12-10T19:12:28.606Z,4.42
2018-12-10T19:14:56.226Z,4.38
2018-12-10T19:17:23.752Z,4.31
2018-12-10T19:19:51.399Z,4.34
2018-12-10T19:22:18.851Z,4.30
2018-12-10T19:24:46.410Z,4.28
2018-12-10T19:27:14.061Z,4.33
2018-12-10T19:29:42.014Z,4.40
2018-12-10T19:32:09.494Z,4.37
2018-12-10T19:34:36.975Z,4.34
2018-12-10T19:37:04.470Z,4.48
2018-12-10T19:39:31.864Z,4.45
2018-12-10T19:41:59.323Z,4.48
2018-12-10T19:44:26.779Z,4.54
2018-12-10T19:46:54.275Z,4.51
2018-12-10T19:49:21.783Z,4.55
2018-12-10T19:51:49.161Z,4.49
2018-12-10T19:54:16.631Z,4.40
2018-12-10T19:56:44.048Z,4.40
2018-12-10T19:59:11.532Z,4.33
2018-12-10T20:01:39.078Z,4.18
2018-12-10T20:04:06.528Z,4.30
2018-12-10T20:06:35.835Z,4.20
2018-12-10T20:09:06.143Z,4.23
2018-12-10T20:11:33.538Z,4.34
2018-12-10T20:14:01.018Z,4.25
2018-12-10T20:16:28.413Z,4.30
2018-12-10T20:18:55.866Z,4.25
2018-12-10T20:21:23.346Z,4.14
2018-12-10T20:23:50.733Z,4.04
2018-12-10T20:26:18.134Z,4.17
2018-12-10T20:28:45.704Z,4.14
2018-12-10T20:31:13.157Z,4.13
2018-12-10T20:33:40.631Z,4.15
2018-12-10T20:36:08.026Z,4.21
2018-12-10T20:38:35.507Z,4.15
2018-12-10T20:41:02.970Z,4.24
2018-12-10T20:43:30.426Z,4.18
2018-12-10T20:45:57.906Z,4.24
2018-12-10T20:48:25.354Z,4.24
2018-12-10T20:50:52.838Z,4.16
2018-12-10T20:53:20.994Z,4.14
2018-12-10T20:55:48.439Z,4.12
2018-12-10T20:58:15.907Z,4.08
2018-12-10T21:00:43.355Z,4.16
2018-12-10T21:03:10.806Z,4.26
2018-12-10T21:05:40.186Z,4.48
2018-12-10T21:08:07.649Z,4.55
2018-12-10T21:10:35.034Z,4.67
2018-12-10T21:13:02.543Z,4.74
2018-12-10T21:15:30.110Z,4.76
2018-12-10T21:17:57.594Z,4.69
2018-12-10T21:20:25.022Z,4.70
2018-12-10T21:22:52.406Z,4.72
2018-12-10T21:25:19.874Z,4.52
2018-12-10T21:27:47.333Z,4.47
2018-12-10T21:30:14.784Z,4.46
2018-12-10T21:32:42.179Z,4.50
2018-12-10T21:35:09.585Z,4.53
2018-12-10T21:37:36.983Z,4.57
2018-12-10T21:40:04.570Z,4.52
2018-12-10T21:42:31.968Z,4.59
2018-12-10T21:44:59.359Z,4.66
2018-12-10T21:47:26.741Z,4.66
2018-12-10T21:49:54.170Z,4.69
2018-12-10T21:52:21.592Z,4.63
2018-12-10T21:54:49.011Z,4.68
2018-12-10T21:57:16.433Z,4.75
2018-12-10T21:59:43.870Z,4.74
2018-12-10T22:02:11.345Z,4.69
2018-12-10T22:04:38.734Z,4.71
2018-12-10T22:07:06.146Z,4.73
2018-12-10T22:09:33.584Z,4.68
2018-12-10T22:12:00.970Z,4.61
2018-12-10T22:14:28.346Z,4.64
2018-12-10T22:16:55.754Z,4.51
2018-12-10T22:19:23.203Z,4.42
2018-12-10T22:21:50.663Z,4.42
2018-12-10T22:24:18.114Z,4.39
2018-12-10T22:26:45.490Z,4.39
2018-12-10T22:29:12.922Z,4.35
2018-12-10T22:31:40.674Z,4.40
2018-12-10T22:34:08.081Z,4.49
2018-12-10T22:36:35.497Z,4.47
2018-12-10T22:39:04.103Z,4.46
2018-12-10T22:41:31.510Z,4.50
2018-12-10T22:43:58.893Z,4.62
2018-12-10T22:46:26.453Z,4.78
2018-12-10T22:48:54.150Z,4.69
2018-12-10T22:51:21.574Z,4.61
2018-12-10T22:53:48.962Z,4.63
2018-12-10T22:56:16.367Z,4.62
2018-12-10T22:58:43.791Z,4.61
2018-12-10T23:01:11.183Z,4.67
2018-12-10T23:03:38.679Z,4.75
2018-12-10T23:06:06.921Z,4.79
2018-12-10T23:08:34.386Z,4.80
2018-12-10T23:11:01.767Z,4.66
2018-12-10T23:13:29.155Z,4.65
2018-12-10T23:15:56.542Z,4.50
2018-12-10T23:18:23.986Z,4.36
2018-12-10T23:20:51.383Z,4.39
2018-12-10T23:23:18.847Z,4.25
2018-12-10T23:25:46.222Z,4.33
2018-12-10T23:28:13.640Z,4.21
2018-12-10T23:30:41.082Z,4.11
2018-12-10T23:33:08.534Z,4.12
2018-12-10T23:35:35.937Z,4.10
2018-12-10T23:38:03.374Z,4.05
2018-12-10T23:40:30.826Z,4.00
2018-12-10T23:43:03.766Z,4.02
2018-12-10T23:45:31.253Z,4.04
2018-12-10T23:47:58.715Z,4.01
2018-12-10T23:50:26.114Z,4.02
2018-12-10T23:52:53.501Z,4.02
2018-12-10T23:55:20.894Z,4.03
2018-12-10T23:57:48.282Z,4.09
